CDT,Max TemperatureF,Mean TemperatureF,Min TemperatureF,Max Dew PointF,MeanDew PointF,Min DewpointF,Max Humidity, Mean Humidity, Min Humidity, Max Sea Level PressureIn, Mean Sea Level PressureIn, Min Sea Level PressureIn, Max VisibilityMiles, Mean VisibilityMiles, Min VisibilityMiles, Max Wind SpeedMPH, Mean Wind SpeedMPH, Max Gust SpeedMPH,PrecipitationIn, CloudCover, Events, WindDirDegrees
2011-10-1,82,64,45,46,41,34,86,53,19,30.20,30.13,30.09,10,10,9,13,5,18,0.00,0,,43
2011-10-2,78,62,46,43,39,33,86,53,20,30.26,30.19,30.15,10,10,10,12,3,16,0.00,0,,48
2011-10-3,81,62,43,45,39,27,92,54,15,30.27,30.21,30.17,10,10,8,10,1,15,0.00,0,,77
2011-10-4,82,63,44,50,43,34,89,53,17,30.28,30.20,30.14,10,10,10,9,2,14,0.00,0,,69
2011-10-5,83,65,46,51,44,33,93,55,17,30.20,30.14,30.06,10,10,2,10,3,14,0.00,0,,110
2011-10-6,86,69,52,58,51,45,89,58,27,30.14,30.09,30.05,10,10,2,17,6,22,0.00,0,,124
2011-10-7,87,73,58,61,56,52,86,59,32,30.17,30.12,30.08,10,10,9,17,7,25,0.00,0,,115
2011-10-8,87,75,62,60,57,54,78,58,37,30.15,30.10,30.02,10,10,10,18,10,24,0.00,0,,106
2011-10-9,85,75,64,59,56,53,84,61,37,30.09,30.02,29.96,10,10,10,18,7,22,0.00,0,,94
2011-10-10,85,74,63,59,57,54,78,56,34,30.03,29.97,29.91,10,10,9,12,3,15,0.00,0,,51
2011-10-11,87,72,57,58,55,51,86,59,32,29.94,29.88,29.81,10,10,10,10,3,14,0.00,0,,81
2011-10-12,86,74,61,61,58,55,90,64,37,29.86,29.81,29.75,10,9,2,24,5,31,0.03,1,Rain-Thunderstorm,220
2011-10-13,84,70,55,58,47,31,90,52,14,29.88,29.82,29.78,10,8,1,20,6,26,0.01,0,,316
2011-10-14,85,66,47,52,38,-26,80,41,1,30.01,29.96,29.89,10,10,10,8,1,12,0.00,0,,112
2011-10-15,87,69,51,62,53,47,100,65,29,30.11,30.05,30.01,10,9,2,8,2,10,0.00,0,,93
2011-10-16,88,69,50,62,58,51,100,68,36,30.13,30.06,29.98,10,9,3,13,3,18,0.00,0,,159
2011-10-17,87,70,52,68,62,54,100,72,43,29.99,29.89,29.75,10,9,2,16,5,23,0.00,1,,170
2011-10-18,68,57,45,68,58,45,100,89,77,29.95,29.80,29.71,10,9,2,26,9,37,0.32,6,Rain-Thunderstorm,312
2011-10-19,66,54,41,46,36,24,100,61,22,30.06,29.95,29.90,10,10,10,30,10,40,0.00,0,,304
2011-10-20,69,51,32,41,33,25,100,59,18,30.15,30.10,30.05,10,10,10,14,2,20,0.00,0,,307
2011-10-21,76,57,38,48,41,32,100,62,23,30.25,30.18,30.14,10,10,10,9,2,15,0.00,0,,100
2011-10-22,81,65,49,58,53,46,93,67,41,30.18,30.11,30.03,10,10,5,12,5,16,0.00,2,,137
2011-10-23,80,69,57,68,62,57,100,76,51,30.09,30.04,29.99,10,10,7,14,4,18,0.01,4,Rain,144
2011-10-24,82,67,51,64,59,51,100,68,36,30.22,30.13,30.09,10,5,0,9,2,15,0.00,2,Fog,54
2011-10-25,83,64,45,55,50,44,100,63,26,30.22,30.14,30.05,10,10,10,13,5,18,0.00,0,,138
2011-10-26,84,74,64,63,58,55,100,72,43,30.07,30.00,29.88,10,5,0,12,5,16,0.00,4,Fog,142
2011-10-27,85,71,57,65,60,54,100,69,37,29.95,29.89,29.81,10,5,0,20,5,25,0.04,4,Fog-Rain,118
2011-10-28,57,49,41,55,49,40,96,81,66,30.22,30.06,29.91,10,10,5,17,9,24,0.12,7,Rain,350
2011-10-29,69,52,34,42,36,30,100,62,24,30.30,30.21,30.13,10,9,2,14,4,20,0.00,0,,2
2011-10-30,67,51,35,41,36,32,92,60,28,30.25,30.19,30.13,10,10,7,9,1,13,0.00,0,,142
2011-10-31,75,55,35,45,39,31,100,64,27,30.26,30.20,30.14,10,10,2,9,2,13,0.00,0,,324